createdAt,value
2023-04-25T00:02:17.784Z,10.82
2023-04-25T00:04:44.733Z,13.95
2023-04-25T00:07:11.656Z,17.42
2023-04-25T00:09:38.255Z,10.68
2023-04-25T00:12:04.949Z,19.10
2023-04-25T00:14:34.615Z,14.85
2023-04-25T00:17:01.453Z,15.68
2023-04-25T00:19:29.438Z,11.70
2023-04-25T00:21:56.516Z,14.60
2023-04-25T00:24:23.101Z,10.85
2023-04-25T00:26:49.761Z,14.65
2023-04-25T00:29:16.454Z,11.57
2023-04-25T00:31:43.325Z,10.85
2023-04-25T00:34:09.916Z,12.70
2023-04-25T00:36:37.246Z,10.85
2023-04-25T00:39:05.628Z,15.93
2023-04-25T00:41:32.256Z,11.75
2023-04-25T00:43:59.011Z,12.77
2023-04-25T00:46:25.613Z,10.48
2023-04-25T00:48:52.283Z,11.63
2023-04-25T00:51:21.584Z,12.30
2023-04-25T00:53:50.242Z,10.85
2023-04-25T00:56:17.426Z,11.85
2023-04-25T00:58:44.157Z,10.48
2023-04-25T01:01:12.254Z,10.60
2023-04-25T01:03:42.261Z,10.95
2023-04-25T01:06:12.051Z,10.52
2023-04-25T01:08:39.616Z,12.00
2023-04-25T01:11:06.906Z,10.40
2023-04-25T01:13:34.053Z,10.07
2023-04-25T01:16:01.072Z,13.20
2023-04-25T01:18:27.815Z,14.32
2023-04-25T01:20:55.377Z,12.35
2023-04-25T01:23:22.969Z,10.32
2023-04-25T01:25:50.561Z,10.45
2023-04-25T01:28:18.759Z,10.07
2023-04-25T01:30:45.614Z,14.27
2023-04-25T01:33:12.795Z,12.23
2023-04-25T01:35:39.359Z,14.32
2023-04-25T01:38:06.033Z,17.83
2023-04-25T01:40:32.758Z,15.20
2023-04-25T01:42:59.308Z,15.55
2023-04-25T01:45:26.178Z,12.75
2023-04-25T01:47:52.723Z,14.77
2023-04-25T01:50:19.730Z,13.38
2023-04-25T01:52:46.414Z,14.35
2023-04-25T01:55:12.993Z,14.48
2023-04-25T01:57:39.674Z,13.43
2023-04-25T02:00:08.002Z,12.73
2023-04-25T02:02:34.732Z,15.10
2023-04-25T02:05:01.366Z,15.95
2023-04-25T02:07:28.048Z,17.88
2023-04-25T02:09:54.525Z,15.73
2023-04-25T02:12:21.020Z,16.92
2023-04-25T02:14:47.513Z,13.07
2023-04-25T02:17:14.590Z,14.43
2023-04-25T02:19:41.181Z,12.75
2023-04-25T02:22:07.846Z,19.23
2023-04-25T02:24:35.848Z,14.48
2023-04-25T02:27:02.577Z,11.85
2023-04-25T02:29:29.866Z,16.77
2023-04-25T02:31:56.654Z,14.88
2023-04-25T02:34:23.252Z,15.55
2023-04-25T02:36:51.866Z,17.00
2023-04-25T02:39:18.475Z,17.98
2023-04-25T02:41:45.030Z,15.82
2023-04-25T02:44:11.486Z,17.20
2023-04-25T02:46:39.698Z,19.30
2023-04-25T02:49:07.461Z,13.45
2023-04-25T02:51:34.061Z,13.15
2023-04-25T02:54:00.867Z,14.35
2023-04-25T02:56:27.972Z,12.63
2023-04-25T02:58:54.754Z,16.77
2023-04-25T03:01:21.510Z,14.07
2023-04-25T03:03:48.154Z,19.02
2023-04-25T03:06:15.120Z,14.82
2023-04-25T03:08:41.658Z,14.43
2023-04-25T03:11:08.190Z,17.42
2023-04-25T03:13:34.742Z,19.50
2023-04-25T03:16:02.150Z,17.95
2023-04-25T03:18:28.756Z,13.00
2023-04-25T03:20:55.499Z,18.23
2023-04-25T03:23:22.209Z,19.05
2023-04-25T03:25:48.746Z,19.45
2023-04-25T03:28:15.584Z,18.05
2023-04-25T03:30:42.129Z,19.65
2023-04-25T03:33:08.924Z,15.90
2023-04-25T03:35:35.445Z,23.75
2023-04-25T03:38:01.995Z,13.82
2023-04-25T03:40:28.624Z,20.58
2023-04-25T03:42:55.168Z,18.73
2023-04-25T03:45:21.781Z,15.07
2023-04-25T03:47:48.368Z,18.92
2023-04-25T03:50:14.954Z,19.67
2023-04-25T03:52:41.515Z,14.95
2023-04-25T03:55:08.386Z,20.75
2023-04-25T03:57:34.946Z,18.50
2023-04-25T04:00:01.572Z,20.17
2023-04-25T04:02:28.270Z,19.10
2023-04-25T04:04:54.938Z,20.23
2023-04-25T04:07:21.750Z,16.77
2023-04-25T04:09:48.320Z,17.40
2023-04-25T04:12:14.875Z,11.95
2023-04-25T04:14:42.996Z,10.40
2023-04-25T04:17:09.569Z,16.15
2023-04-25T04:19:36.233Z,9.00
2023-04-25T04:22:02.791Z,18.17
2023-04-25T04:24:29.312Z,11.38
2023-04-25T04:26:56.062Z,7.03
2023-04-25T04:29:22.698Z,11.30
2023-04-25T04:31:50.591Z,12.27
2023-04-25T04:34:20.474Z,11.48
2023-04-25T04:36:47.861Z,11.80
2023-04-25T04:39:14.879Z,8.73
2023-04-25T04:41:41.650Z,13.10
2023-04-25T04:44:09.951Z,10.60
2023-04-25T04:46:43.258Z,10.25
2023-04-25T04:49:11.050Z,11.20
2023-04-25T04:51:38.238Z,10.20
2023-04-25T04:54:05.551Z,12.57
2023-04-25T04:56:32.194Z,13.40
2023-04-25T04:58:59.433Z,9.90
2023-04-25T05:01:27.607Z,23.88
2023-04-25T05:03:55.180Z,9.82
2023-04-25T05:06:22.414Z,15.88
2023-04-25T05:08:49.068Z,17.00
2023-04-25T05:11:15.674Z,11.50
2023-04-25T05:13:42.222Z,10.05
2023-04-25T05:16:09.897Z,16.33
2023-04-25T05:18:37.289Z,12.55
2023-04-25T05:21:03.896Z,16.10
2023-04-25T05:23:33.367Z,11.52
2023-04-25T05:26:00.614Z,11.45
2023-04-25T05:28:27.177Z,11.05
2023-04-25T05:30:53.790Z,15.20
2023-04-25T05:33:20.339Z,12.93
2023-04-25T05:35:47.382Z,22.63
2023-04-25T05:38:14.057Z,18.52
2023-04-25T05:40:40.644Z,15.88
2023-04-25T05:43:07.300Z,23.73
2023-04-25T05:45:33.880Z,18.80
2023-04-25T05:48:00.659Z,20.75
2023-04-25T05:50:27.515Z,18.27
2023-04-25T05:52:54.013Z,39.00
2023-04-25T05:55:20.468Z,15.25
2023-04-25T05:57:47.238Z,18.83
2023-04-25T06:00:17.062Z,17.48
2023-04-25T06:02:43.788Z,22.52
2023-04-25T06:05:10.853Z,21.02
2023-04-25T06:07:37.904Z,18.23
2023-04-25T06:10:07.376Z,13.57
2023-04-25T06:12:34.462Z,19.92
2023-04-25T06:15:01.380Z,22.75
2023-04-25T06:17:27.908Z,22.77
2023-04-25T06:19:54.525Z,19.05
2023-04-25T06:22:21.449Z,21.02
2023-04-25T06:24:48.634Z,19.27
2023-04-25T06:27:16.988Z,22.27
2023-04-25T06:29:43.916Z,18.77
2023-04-25T06:32:10.420Z,18.33
2023-04-25T06:34:37.032Z,14.15
2023-04-25T06:37:03.661Z,16.85
2023-04-25T06:39:30.810Z,17.42
2023-04-25T06:41:57.372Z,17.58
2023-04-25T06:44:25.412Z,19.48
2023-04-25T06:46:52.008Z,21.92
2023-04-25T06:49:18.592Z,19.52
2023-04-25T06:51:45.369Z,19.85
2023-04-25T06:54:11.988Z,17.15
2023-04-25T06:56:38.548Z,19.85
2023-04-25T06:59:05.030Z,14.88
2023-04-25T07:01:31.685Z,16.88
2023-04-25T07:03:58.619Z,16.30
2023-04-25T07:06:26.962Z,13.57
2023-04-25T07:08:53.749Z,14.32
2023-04-25T07:11:20.652Z,17.10
2023-04-25T07:13:47.165Z,13.43
2023-04-25T07:16:13.712Z,12.73
2023-04-25T07:18:40.239Z,14.63
2023-04-25T07:21:06.939Z,17.50
2023-04-25T07:23:33.460Z,13.98
2023-04-25T07:25:59.946Z,12.93
2023-04-25T07:28:26.511Z,14.23
2023-04-25T07:30:53.058Z,15.48
2023-04-25T07:33:21.555Z,11.43
2023-04-25T07:35:48.350Z,15.23
2023-04-25T07:38:14.934Z,14.88
2023-04-25T07:40:41.480Z,20.58
2023-04-25T07:43:09.184Z,11.38
2023-04-25T07:45:35.743Z,14.40
2023-04-25T07:48:02.528Z,13.23
2023-04-25T07:50:29.131Z,14.05
2023-04-25T07:52:55.637Z,15.32
2023-04-25T07:55:22.360Z,17.30
2023-04-25T07:57:48.956Z,12.77
2023-04-25T08:00:16.143Z,10.55
2023-04-25T08:02:42.789Z,11.90
2023-04-25T08:05:13.103Z,9.68
2023-04-25T08:07:39.956Z,13.25
2023-04-25T08:10:07.825Z,12.82
2023-04-25T08:12:34.873Z,14.52
2023-04-25T08:15:01.465Z,9.38
2023-04-25T08:17:28.537Z,10.95
2023-04-25T08:19:55.206Z,10.75
2023-04-25T08:22:21.773Z,9.57
2023-04-25T08:24:48.236Z,8.23
2023-04-25T08:27:14.918Z,9.70
2023-04-25T08:29:42.933Z,13.93
2023-04-25T08:32:09.571Z,13.35
2023-04-25T08:34:37.887Z,11.02
2023-04-25T08:37:05.427Z,11.35
2023-04-25T08:39:32.026Z,7.90
2023-04-25T08:41:58.626Z,7.28
2023-04-25T08:44:25.731Z,8.63
2023-04-25T08:46:53.373Z,7.50
2023-04-25T08:49:20.199Z,12.90
2023-04-25T08:51:48.302Z,7.45
2023-04-25T08:54:30.656Z,7.90
2023-04-25T08:57:03.412Z,9.65
2023-04-25T08:59:30.901Z,11.90
2023-04-25T09:01:58.070Z,6.75
2023-04-25T09:04:24.716Z,10.73
2023-04-25T09:06:51.552Z,9.98
2023-04-25T09:09:18.151Z,9.57
2023-04-25T09:11:44.752Z,7.68
2023-04-25T09:14:15.558Z,10.27
2023-04-25T09:16:58.555Z,11.35
2023-04-25T09:22:04.950Z,10.90
2023-04-25T09:24:39.181Z,8.60
2023-04-25T09:27:08.040Z,10.10
2023-04-25T09:29:37.248Z,8.45
2023-04-25T09:32:16.339Z,10.20
2023-04-25T09:34:45.046Z,9.55
2023-04-25T09:37:12.180Z,8.07
2023-04-25T09:39:39.709Z,11.10
2023-04-25T09:42:06.775Z,7.80
2023-04-25T09:44:33.432Z,6.53
2023-04-25T09:47:00.267Z,8.02
2023-04-25T09:49:28.578Z,11.57
2023-04-25T09:51:58.721Z,7.88
2023-04-25T09:54:28.353Z,6.80
2023-04-25T09:56:55.333Z,7.93
2023-04-25T09:59:26.126Z,5.40
2023-04-25T10:01:53.584Z,6.18
2023-04-25T10:04:24.653Z,6.43
2023-04-25T10:06:53.301Z,6.75
2023-04-25T10:09:26.975Z,8.43
2023-04-25T10:11:54.041Z,7.25
2023-04-25T10:14:21.371Z,8.73
2023-04-25T10:16:48.637Z,7.72
2023-04-25T10:19:16.414Z,8.05
2023-04-25T10:21:52.478Z,7.30
2023-04-25T10:24:20.736Z,7.15
2023-04-25T10:26:48.450Z,9.15
2023-04-25T10:29:22.740Z,6.80
2023-04-25T10:31:49.338Z,7.15
2023-04-25T10:34:17.746Z,9.63
2023-04-25T10:36:51.280Z,7.28
2023-04-25T10:39:26.301Z,7.97
2023-04-25T10:41:59.893Z,7.57
2023-04-25T10:44:30.701Z,6.60
2023-04-25T10:46:59.036Z,6.25
2023-04-25T10:49:35.360Z,6.80
2023-04-25T10:52:27.724Z,7.07
2023-04-25T10:54:56.454Z,7.20
2023-04-25T10:57:47.292Z,7.22
2023-04-25T11:00:17.235Z,7.47
2023-04-25T11:02:48.817Z,8.67
2023-04-25T11:05:26.947Z,7.22
2023-04-25T11:08:06.391Z,7.78
2023-04-25T11:13:03.806Z,7.25
2023-04-25T11:15:30.656Z,7.97
2023-04-25T11:17:57.259Z,7.40
2023-04-25T11:20:27.076Z,6.72
2023-04-25T11:22:54.047Z,6.95
2023-04-25T11:25:21.147Z,7.03
2023-04-25T11:27:58.470Z,9.93
2023-04-25T11:30:26.583Z,9.98
2023-04-25T11:32:54.069Z,6.70
2023-04-25T11:35:21.490Z,8.05
2023-04-25T11:37:48.260Z,7.80
2023-04-25T11:40:15.783Z,6.75
2023-04-25T11:42:47.182Z,7.55
2023-04-25T11:45:16.579Z,7.57
2023-04-25T11:47:43.369Z,7.90
2023-04-25T11:50:10.899Z,6.68
2023-04-25T11:52:44.291Z,7.25
2023-04-25T11:55:21.171Z,6.68
2023-04-25T11:57:52.990Z,6.20
2023-04-25T12:00:21.770Z,6.15
2023-04-25T12:02:53.195Z,6.30
2023-04-25T12:05:32.182Z,6.22
2023-04-25T12:08:10.189Z,6.50
2023-04-25T12:10:39.058Z,7.15
2023-04-25T12:13:22.709Z,7.32
2023-04-25T12:15:49.950Z,7.30
2023-04-25T12:18:20.415Z,7.22
2023-04-25T12:20:47.028Z,7.10
2023-04-25T12:23:13.927Z,6.43
2023-04-25T12:25:45.676Z,7.22
2023-04-25T12:28:13.187Z,6.70
2023-04-25T12:30:59.029Z,7.47
2023-04-25T12:33:27.091Z,7.80
2023-04-25T12:35:54.533Z,7.13
2023-04-25T12:38:24.341Z,7.03
2023-04-25T12:40:50.956Z,7.32
2023-04-25T12:43:18.168Z,6.35
2023-04-25T12:45:54.360Z,6.82
2023-04-25T12:48:21.840Z,6.40
2023-04-25T12:50:50.206Z,6.50
2023-04-25T12:53:17.872Z,7.55
2023-04-25T12:55:46.973Z,6.65
2023-04-25T12:58:17.448Z,7.47
2023-04-25T13:00:44.374Z,7.03
2023-04-25T13:03:12.112Z,8.00
2023-04-25T13:05:39.387Z,6.95
2023-04-25T13:08:06.164Z,7.50
2023-04-25T13:10:34.833Z,7.30
2023-04-25T13:13:02.209Z,8.20
2023-04-25T13:15:29.270Z,7.25
2023-04-25T13:17:56.826Z,7.50
2023-04-25T13:20:23.665Z,6.90
2023-04-25T13:22:50.227Z,6.95
2023-04-25T13:25:17.563Z,6.07
2023-04-25T13:27:45.324Z,6.72
2023-04-25T13:30:14.531Z,6.47
2023-04-25T13:32:41.176Z,7.43
2023-04-25T13:35:11.116Z,7.95
2023-04-25T13:37:38.400Z,7.10
2023-04-25T13:40:07.404Z,7.38
2023-04-25T13:42:34.038Z,8.43
2023-04-25T13:45:00.654Z,7.45
2023-04-25T13:47:28.079Z,6.90
2023-04-25T13:49:55.450Z,7.70
2023-04-25T13:52:22.009Z,7.32
2023-04-25T13:54:48.530Z,7.20
2023-04-25T13:57:15.108Z,12.88
2023-04-25T13:59:41.880Z,8.75
2023-04-25T14:02:08.560Z,7.18
2023-04-25T14:04:35.221Z,7.32
2023-04-25T14:07:03.254Z,8.05
2023-04-25T14:09:30.531Z,7.38
2023-04-25T14:11:57.385Z,6.88
2023-04-25T14:14:24.534Z,7.10
2023-04-25T14:16:52.616Z,7.15
2023-04-25T14:19:22.037Z,7.13
2023-04-25T14:21:48.827Z,6.70
2023-04-25T14:24:17.020Z,6.90
2023-04-25T14:26:43.882Z,7.28
2023-04-25T14:29:12.754Z,7.90
2023-04-25T14:31:41.452Z,7.00
2023-04-25T14:34:08.830Z,7.20
2023-04-25T14:36:37.127Z,7.20
2023-04-25T14:39:04.108Z,7.05
2023-04-25T14:41:30.840Z,10.23
2023-04-25T14:44:00.612Z,7.20
2023-04-25T14:46:36.111Z,6.90
2023-04-25T14:49:04.084Z,7.43
2023-04-25T14:51:32.030Z,7.63
2023-04-25T14:53:59.126Z,7.20
2023-04-25T14:56:25.612Z,7.45
2023-04-25T14:58:52.226Z,6.97
2023-04-25T15:01:18.956Z,6.63
2023-04-25T15:03:45.722Z,7.18
2023-04-25T15:06:12.395Z,7.25
2023-04-25T15:08:38.984Z,8.13
2023-04-25T15:11:05.712Z,7.15
2023-04-25T15:13:32.214Z,7.15
2023-04-25T15:15:58.857Z,7.30
2023-04-25T15:18:27.833Z,7.10
2023-04-25T15:20:54.501Z,8.05
2023-04-25T15:23:22.373Z,7.15
2023-04-25T15:25:51.082Z,7.13
2023-04-25T15:28:17.929Z,8.15
2023-04-25T15:30:44.914Z,7.28
2023-04-25T15:33:11.772Z,7.20
2023-04-25T15:35:38.443Z,7.00
2023-04-25T15:38:05.305Z,6.75
2023-04-25T15:40:31.929Z,6.53
2023-04-25T15:42:58.486Z,6.22
2023-04-25T15:45:26.409Z,6.10
2023-04-25T15:47:55.171Z,6.40
2023-04-25T15:50:24.596Z,6.63
2023-04-25T15:52:54.553Z,6.25
2023-04-25T15:55:21.906Z,7.07
2023-04-25T15:57:49.659Z,6.80
2023-04-25T16:00:17.904Z,7.18
2023-04-25T16:02:45.725Z,8.10
2023-04-25T16:05:14.502Z,7.78
2023-04-25T16:07:43.089Z,6.70
2023-04-25T16:10:11.265Z,6.88
2023-04-25T16:12:39.122Z,6.50
2023-04-25T16:15:06.413Z,7.30
2023-04-25T16:17:33.593Z,6.88
2023-04-25T16:20:01.969Z,7.82
2023-04-25T16:22:28.474Z,7.38
2023-04-25T16:24:54.972Z,7.22
2023-04-25T16:27:22.028Z,6.50
2023-04-25T16:29:51.285Z,7.28
2023-04-25T16:32:17.829Z,6.25
2023-04-25T16:34:44.854Z,7.43
2023-04-25T16:37:12.669Z,8.02
2023-04-25T16:39:39.264Z,7.15
2023-04-25T16:42:06.259Z,7.47
2023-04-25T16:44:32.867Z,6.55
2023-04-25T16:46:59.533Z,7.40
2023-04-25T16:49:26.572Z,8.50
2023-04-25T16:51:53.160Z,7.40
2023-04-25T16:54:19.757Z,7.07
2023-04-25T16:56:46.256Z,7.22
2023-04-25T16:59:12.832Z,7.47
2023-04-25T17:01:39.500Z,7.18
2023-04-25T17:04:08.223Z,7.22
2023-04-25T17:06:35.253Z,7.00
2023-04-25T17:09:02.183Z,7.28
2023-04-25T17:11:30.217Z,6.60
2023-04-25T17:13:56.861Z,6.82
2023-04-25T17:16:23.721Z,6.63
2023-04-25T17:18:51.618Z,7.32
2023-04-25T17:21:19.000Z,7.45
2023-04-25T17:23:45.968Z,7.00
2023-04-25T17:26:13.229Z,9.48
2023-04-25T17:28:45.027Z,7.90
2023-04-25T17:31:12.218Z,7.40
2023-04-25T17:33:38.893Z,8.15
2023-04-25T17:36:05.697Z,8.10
2023-04-25T17:38:32.828Z,8.23
2023-04-25T17:40:59.507Z,7.50
2023-04-25T17:43:27.709Z,16.75
2023-04-25T17:45:54.868Z,7.28
2023-04-25T17:48:24.224Z,7.38
2023-04-25T17:50:51.774Z,7.72
2023-04-25T17:53:18.392Z,7.93
2023-04-25T17:55:44.944Z,7.30
2023-04-25T17:58:11.684Z,6.78
2023-04-25T18:00:39.097Z,7.35
2023-04-25T18:03:06.008Z,7.32
2023-04-25T18:05:33.009Z,7.40
2023-04-25T18:07:59.796Z,7.15
2023-04-25T18:10:26.664Z,8.85
2023-04-25T18:12:53.378Z,7.63
2023-04-25T18:15:20.846Z,8.15
2023-04-25T18:17:47.538Z,7.35
2023-04-25T18:20:15.829Z,7.90
2023-04-25T18:22:43.348Z,7.40
2023-04-25T18:25:11.177Z,7.82
2023-04-25T18:27:38.799Z,7.57
2023-04-25T18:30:06.607Z,8.25
2023-04-25T18:32:33.249Z,7.50
2023-04-25T18:34:59.800Z,7.05
2023-04-25T18:37:26.341Z,6.75
2023-04-25T18:39:52.975Z,6.97
2023-04-25T18:42:20.316Z,6.70
2023-04-25T18:44:46.882Z,7.22
2023-04-25T18:47:13.961Z,7.30
2023-04-25T18:49:41.008Z,8.02
2023-04-25T18:52:12.342Z,8.07
2023-04-25T18:54:39.261Z,6.78
2023-04-25T18:57:06.527Z,6.50
2023-04-25T18:59:33.631Z,7.10
2023-04-25T19:02:04.437Z,6.70
2023-04-25T19:04:31.623Z,6.65
2023-04-25T19:06:58.309Z,6.40
2023-04-25T19:09:25.320Z,6.57
2023-04-25T19:11:51.898Z,7.70
2023-04-25T19:14:18.535Z,7.07
2023-04-25T19:16:45.069Z,7.68
2023-04-25T19:19:11.783Z,6.88
2023-04-25T19:21:38.626Z,6.32
2023-04-25T19:24:05.698Z,6.45
2023-04-25T19:26:32.364Z,6.65
2023-04-25T19:29:09.697Z,6.13
2023-04-25T19:31:37.729Z,6.20
2023-04-25T19:34:05.549Z,6.10
2023-04-25T19:36:32.544Z,6.35
2023-04-25T19:39:07.132Z,6.47
2023-04-25T19:41:41.091Z,7.20
2023-04-25T19:44:09.052Z,6.88
2023-04-25T19:46:38.746Z,7.57
2023-04-25T19:49:08.903Z,10.07
2023-04-25T19:51:37.240Z,6.68
2023-04-25T19:54:04.366Z,7.18
2023-04-25T19:56:31.037Z,9.20
2023-04-25T19:59:00.659Z,7.28
2023-04-25T20:01:27.428Z,6.60
2023-04-25T20:03:54.419Z,7.28
2023-04-25T20:06:21.660Z,7.43
2023-04-25T20:08:48.202Z,6.78
2023-04-25T20:11:15.324Z,8.75
2023-04-25T20:13:43.320Z,6.80
2023-04-25T20:16:09.964Z,6.57
2023-04-25T20:18:36.601Z,7.28
2023-04-25T20:21:03.299Z,7.70
2023-04-25T20:23:29.992Z,7.70
2023-04-25T20:25:56.543Z,7.78
2023-04-25T20:28:23.357Z,6.18
2023-04-25T20:30:50.435Z,6.75
2023-04-25T20:33:17.070Z,6.45
2023-04-25T20:35:44.035Z,6.40
2023-04-25T20:38:10.857Z,7.38
2023-04-25T20:40:39.801Z,7.03
2023-04-25T20:43:06.371Z,6.10
2023-04-25T20:45:34.561Z,8.07
2023-04-25T20:48:04.949Z,8.68
2023-04-25T20:50:33.348Z,8.95
2023-04-25T20:52:59.882Z,6.53
2023-04-25T20:55:27.126Z,13.50
2023-04-25T20:57:53.669Z,9.30
2023-04-25T21:00:27.153Z,7.07
2023-04-25T21:02:54.626Z,6.47
2023-04-25T21:05:24.586Z,6.85
2023-04-25T21:07:54.640Z,8.45
2023-04-25T21:10:21.575Z,6.20
2023-04-25T21:12:49.661Z,7.35
2023-04-25T21:15:22.431Z,7.70
2023-04-25T21:17:49.880Z,7.85
2023-04-25T21:20:20.746Z,10.68
2023-04-25T21:22:53.865Z,7.72
2023-04-25T21:25:31.467Z,8.35
2023-04-25T21:27:59.269Z,8.35
2023-04-25T21:30:26.541Z,9.98
2023-04-25T21:35:56.877Z,7.47
2023-04-25T21:38:23.341Z,8.95
2023-04-25T21:40:49.964Z,8.07
2023-04-25T21:43:16.460Z,12.57
2023-04-25T21:46:02.075Z,7.93
2023-04-25T21:48:29.615Z,7.90
2023-04-25T21:50:56.193Z,9.52
2023-04-25T21:53:22.692Z,7.95
2023-04-25T21:55:49.233Z,7.05
2023-04-25T21:58:15.881Z,6.88
2023-04-25T22:00:42.654Z,10.93
2023-04-25T22:03:09.382Z,7.05
2023-04-25T22:05:37.061Z,9.85
2023-04-25T22:08:03.729Z,11.02
2023-04-25T22:10:30.393Z,6.70
2023-04-25T22:12:58.365Z,9.20
2023-04-25T22:15:25.031Z,7.55
2023-04-25T22:17:52.337Z,10.10
2023-04-25T22:20:22.713Z,7.45
2023-04-25T22:22:49.554Z,7.75
2023-04-25T22:25:16.223Z,7.60
2023-04-25T22:27:43.739Z,7.88
2023-04-25T22:30:13.324Z,14.70
2023-04-25T22:32:40.023Z,13.18
2023-04-25T22:35:07.283Z,9.75
2023-04-25T22:37:35.876Z,9.98
2023-04-25T22:40:12.301Z,8.57
2023-04-25T22:42:39.895Z,8.23
2023-04-25T22:45:11.016Z,9.05
2023-04-25T22:47:38.457Z,8.10
2023-04-25T22:50:08.677Z,8.20
2023-04-25T22:52:35.219Z,7.73
2023-04-25T22:55:05.160Z,9.60
2023-04-25T22:57:32.007Z,9.48
2023-04-25T22:59:58.799Z,10.52
2023-04-25T23:02:25.950Z,8.02
2023-04-25T23:04:53.296Z,10.93
2023-04-25T23:07:20.742Z,10.23
2023-04-25T23:09:47.290Z,10.95
2023-04-25T23:12:13.815Z,12.30
2023-04-25T23:14:40.301Z,10.02
2023-04-25T23:17:07.009Z,8.85
2023-04-25T23:19:34.375Z,12.43
2023-04-25T23:22:01.835Z,9.38
2023-04-25T23:24:28.310Z,9.98
2023-04-25T23:26:54.818Z,14.02
2023-04-25T23:29:21.449Z,12.25
2023-04-25T23:31:47.985Z,9.50
2023-04-25T23:34:14.610Z,8.80
2023-04-25T23:36:41.757Z,11.85
2023-04-25T23:39:10.384Z,16.02
2023-04-25T23:41:37.070Z,9.98
2023-04-25T23:44:07.648Z,14.18
2023-04-25T23:46:35.909Z,15.63
2023-04-25T23:49:05.533Z,13.63
2023-04-25T23:51:32.364Z,11.48
2023-04-25T23:53:59.111Z,15.30
2023-04-25T23:56:26.263Z,8.82
2023-04-25T23:58:53.281Z,10.07
